createdAt,value
2023-05-12T00:01:21.648Z,4.03
2023-05-12T00:03:50.545Z,3.60
2023-05-12T00:06:18.255Z,4.30
2023-05-12T00:08:45.141Z,4.00
2023-05-12T00:11:12.318Z,3.97
2023-05-12T00:13:39.253Z,3.63
2023-05-12T00:16:06.540Z,3.50
2023-05-12T00:18:33.581Z,3.87
2023-05-12T00:21:00.504Z,3.73
2023-05-12T00:23:27.454Z,4.03
2023-05-12T00:25:54.328Z,3.50
2023-05-12T00:28:21.312Z,4.00
2023-05-12T00:30:48.304Z,3.70
2023-05-12T00:33:16.680Z,3.37
2023-05-12T00:35:45.986Z,4.00
2023-05-12T00:38:13.600Z,4.10
2023-05-12T00:40:42.108Z,3.93
2023-05-12T00:43:09.219Z,3.60
2023-05-12T00:45:36.756Z,3.40
2023-05-12T00:48:06.357Z,3.80
2023-05-12T00:50:33.388Z,3.83
2023-05-12T00:53:02.160Z,3.60
2023-05-12T00:55:31.385Z,3.57
2023-05-12T00:57:59.121Z,3.87
2023-05-12T01:00:26.101Z,4.10
2023-05-12T01:02:53.006Z,3.77
2023-05-12T01:05:19.919Z,3.50
2023-05-12T01:07:51.083Z,3.90
2023-05-12T01:10:22.521Z,4.03
2023-05-12T01:12:49.691Z,3.80
2023-05-12T01:15:18.297Z,3.63
2023-05-12T01:17:50.211Z,3.97
2023-05-12T01:20:18.906Z,3.50
2023-05-12T01:22:48.023Z,3.67
2023-05-12T01:25:16.551Z,3.60
2023-05-12T01:27:45.601Z,3.40
2023-05-12T01:30:18.149Z,3.90
2023-05-12T01:32:46.174Z,3.57
2023-05-12T01:35:13.053Z,3.33
2023-05-12T01:37:39.945Z,3.50
2023-05-12T01:40:07.975Z,3.33
2023-05-12T01:42:34.864Z,3.33
2023-05-12T01:45:01.718Z,3.33
2023-05-12T01:47:29.476Z,3.20
2023-05-12T01:49:56.561Z,3.43
2023-05-12T01:52:25.064Z,3.70
2023-05-12T01:54:51.989Z,3.87
2023-05-12T01:57:18.948Z,3.50
2023-05-12T01:59:45.834Z,3.80
2023-05-12T02:02:12.774Z,3.57
2023-05-12T02:04:39.700Z,3.40
2023-05-12T02:07:06.757Z,3.93
2023-05-12T02:09:38.175Z,3.17
2023-05-12T02:12:08.632Z,3.63
2023-05-12T02:14:35.601Z,3.40
2023-05-12T02:17:03.277Z,3.30
2023-05-12T02:19:30.133Z,3.27
2023-05-12T02:21:57.597Z,3.33
2023-05-12T02:24:24.606Z,3.50
2023-05-12T02:26:51.556Z,4.00
2023-05-12T02:29:18.713Z,3.80
2023-05-12T02:31:45.887Z,3.60
2023-05-12T02:34:13.118Z,3.30
2023-05-12T02:36:40.062Z,3.33
2023-05-12T02:39:08.058Z,3.50
2023-05-12T02:41:34.982Z,3.20
2023-05-12T02:44:01.814Z,3.47
2023-05-12T02:46:29.205Z,3.60
2023-05-12T02:48:56.117Z,3.50
2023-05-12T02:51:23.127Z,3.60
2023-05-12T02:53:50.005Z,3.57
2023-05-12T02:56:18.095Z,3.43
2023-05-12T02:58:45.846Z,3.87
2023-05-12T03:01:12.813Z,3.63
2023-05-12T03:03:40.191Z,3.47
2023-05-12T03:06:07.579Z,3.50
2023-05-12T03:08:34.493Z,3.60
2023-05-12T03:11:02.073Z,3.83
2023-05-12T03:13:32.060Z,4.00
2023-05-12T03:16:01.856Z,3.50
2023-05-12T03:18:29.349Z,3.60
2023-05-12T03:20:56.971Z,3.83
2023-05-12T03:23:23.961Z,4.00
2023-05-12T03:25:50.997Z,3.60
2023-05-12T03:28:17.915Z,4.00
2023-05-12T03:30:44.747Z,3.93
2023-05-12T03:33:11.856Z,4.10
2023-05-12T03:35:38.943Z,3.60
2023-05-12T03:38:05.942Z,3.60
2023-05-12T03:40:32.860Z,4.00
2023-05-12T03:42:59.742Z,3.70
2023-05-12T03:45:26.884Z,3.50
2023-05-12T03:47:53.884Z,3.90
2023-05-12T03:50:21.193Z,4.00
2023-05-12T03:52:48.179Z,3.70
2023-05-12T03:55:15.080Z,3.83
2023-05-12T03:57:42.083Z,3.40
2023-05-12T04:00:09.936Z,3.50
2023-05-12T04:02:39.880Z,3.60
2023-05-12T04:05:08.327Z,3.73
2023-05-12T04:07:35.612Z,3.77
2023-05-12T04:10:02.966Z,3.23
2023-05-12T04:12:29.969Z,3.67
2023-05-12T04:14:57.527Z,3.70
2023-05-12T04:17:24.872Z,3.77
2023-05-12T04:19:52.752Z,3.80
2023-05-12T04:22:20.102Z,3.70
2023-05-12T04:24:47.163Z,3.80
2023-05-12T04:27:14.723Z,4.30
2023-05-12T04:29:41.692Z,3.77
2023-05-12T04:32:09.217Z,3.60
2023-05-12T04:34:36.605Z,3.53
2023-05-12T04:37:03.496Z,3.70
2023-05-12T04:39:30.371Z,3.50
2023-05-12T04:41:57.572Z,3.90
2023-05-12T04:44:24.384Z,3.80
2023-05-12T04:46:53.517Z,3.70
2023-05-12T04:49:20.406Z,3.70
2023-05-12T04:51:47.278Z,3.93
2023-05-12T04:54:14.301Z,3.70
2023-05-12T04:56:41.267Z,3.43
2023-05-12T04:59:08.175Z,3.97
2023-05-12T05:01:35.190Z,3.60
2023-05-12T05:04:02.150Z,3.57
2023-05-12T05:06:29.817Z,3.33
2023-05-12T05:08:57.392Z,3.40
2023-05-12T05:11:24.388Z,3.40
2023-05-12T05:13:51.408Z,3.23
2023-05-12T05:16:18.514Z,3.73
2023-05-12T05:18:48.231Z,3.30
2023-05-12T05:21:15.421Z,3.43
2023-05-12T05:23:42.904Z,3.60
2023-05-12T05:26:09.957Z,3.63
2023-05-12T05:28:40.099Z,3.43
2023-05-12T05:31:08.891Z,3.53
2023-05-12T05:33:35.825Z,3.50
2023-05-12T05:36:03.210Z,3.57
2023-05-12T05:38:33.387Z,3.47
2023-05-12T05:41:01.250Z,3.20
2023-05-12T05:43:28.462Z,3.50
2023-05-12T05:46:02.469Z,3.10
2023-05-12T05:48:29.952Z,3.20
2023-05-12T05:51:00.393Z,3.43
2023-05-12T05:53:31.677Z,3.23
2023-05-12T05:56:23.920Z,3.23
2023-05-12T05:59:20.766Z,3.13
2023-05-12T06:01:55.238Z,3.37
2023-05-12T06:04:23.886Z,2.97
2023-05-12T06:06:54.599Z,2.90
2023-05-12T06:09:21.676Z,2.97
2023-05-12T06:11:48.838Z,3.23
2023-05-12T06:14:15.849Z,3.30
2023-05-12T06:16:42.834Z,2.90
2023-05-12T06:19:09.887Z,3.20
2023-05-12T06:21:36.994Z,3.03
2023-05-12T06:24:04.118Z,2.93
2023-05-12T06:26:30.969Z,3.33
2023-05-12T06:28:57.937Z,3.20
2023-05-12T06:31:25.255Z,2.80
2023-05-12T06:33:52.165Z,3.13
2023-05-12T06:36:19.036Z,2.97
2023-05-12T06:38:46.054Z,2.83
2023-05-12T06:41:13.059Z,3.03
2023-05-12T06:43:40.168Z,3.00
2023-05-12T06:46:07.175Z,2.80
2023-05-12T06:48:34.172Z,3.17
2023-05-12T06:51:01.043Z,2.83
2023-05-12T06:53:28.081Z,2.33
2023-05-12T06:55:55.248Z,2.70
2023-05-12T06:58:22.371Z,2.60
2023-05-12T07:00:49.265Z,2.67
2023-05-12T07:03:16.707Z,2.50
2023-05-12T07:05:43.663Z,2.57
2023-05-12T07:08:10.601Z,2.77
2023-05-12T07:10:38.110Z,2.60
2023-05-12T07:13:05.123Z,2.63
2023-05-12T07:15:32.993Z,2.40
2023-05-12T07:18:00.476Z,2.60
2023-05-12T07:20:27.437Z,2.70
2023-05-12T07:23:02.341Z,2.67
2023-05-12T07:25:30.104Z,2.50
2023-05-12T07:27:57.059Z,2.90
2023-05-12T07:30:23.942Z,2.60
2023-05-12T07:32:50.982Z,2.53
2023-05-12T07:35:18.009Z,2.40
2023-05-12T07:37:44.921Z,2.23
2023-05-12T07:40:12.268Z,2.70
2023-05-12T07:42:42.317Z,2.90
2023-05-12T07:45:09.468Z,2.67
2023-05-12T07:47:36.481Z,2.67
2023-05-12T07:50:03.423Z,2.83
2023-05-12T07:52:30.437Z,2.60
2023-05-12T07:54:57.763Z,2.30
2023-05-12T07:57:24.899Z,2.27
2023-05-12T07:59:52.007Z,2.50
2023-05-12T08:02:20.641Z,2.43
2023-05-12T08:04:47.711Z,2.40
2023-05-12T08:07:15.508Z,2.20
2023-05-12T08:09:42.765Z,2.30
2023-05-12T08:12:09.935Z,2.50
2023-05-12T08:14:37.156Z,2.40
2023-05-12T08:17:05.267Z,2.60
2023-05-12T08:19:32.514Z,2.20
2023-05-12T08:21:59.671Z,2.40
2023-05-12T08:24:27.315Z,2.20
2023-05-12T08:26:54.159Z,2.50
2023-05-12T08:29:21.372Z,2.90
2023-05-12T08:31:48.189Z,3.08
2023-05-12T08:34:15.037Z,2.95
2023-05-12T08:36:41.890Z,3.00
2023-05-12T08:39:12.379Z,2.72
2023-05-12T08:42:09.853Z,2.70
2023-05-12T08:44:40.794Z,2.42
2023-05-12T08:47:09.465Z,2.95
2023-05-12T08:49:39.193Z,2.60
2023-05-12T08:52:07.921Z,2.65
2023-05-12T08:54:48.530Z,2.97
2023-05-12T08:57:26.480Z,3.00
2023-05-12T08:59:56.307Z,2.60
2023-05-12T09:02:24.690Z,2.93
2023-05-12T09:04:52.599Z,3.07
2023-05-12T09:07:19.981Z,2.33
2023-05-12T09:09:48.840Z,2.88
2023-05-12T09:12:18.184Z,2.70
2023-05-12T09:14:46.986Z,2.53
2023-05-12T09:17:14.252Z,2.73
2023-05-12T09:19:41.175Z,2.50
2023-05-12T09:22:09.690Z,2.85
2023-05-12T09:24:38.277Z,2.83
2023-05-12T09:27:05.878Z,2.60
2023-05-12T09:29:39.506Z,2.78
2023-05-12T09:32:12.537Z,2.30
2023-05-12T09:34:41.304Z,2.47
2023-05-12T09:37:08.712Z,2.38
2023-05-12T09:39:36.838Z,2.40
2023-05-12T09:42:04.126Z,2.50
2023-05-12T09:44:32.509Z,2.60
2023-05-12T09:47:10.307Z,2.78
2023-05-12T09:49:38.590Z,2.50
2023-05-12T09:52:06.030Z,2.70
2023-05-12T09:54:34.525Z,2.45
2023-05-12T09:57:05.032Z,2.47
2023-05-12T09:59:34.087Z,2.80
2023-05-12T10:02:02.857Z,2.60
2023-05-12T10:04:39.433Z,2.40
2023-05-12T10:07:11.926Z,2.20
2023-05-12T10:09:42.392Z,2.75
2023-05-12T10:12:10.154Z,2.90
2023-05-12T10:14:38.583Z,4.15
2023-05-12T10:17:06.965Z,2.60
2023-05-12T10:19:36.110Z,2.50
2023-05-12T10:22:04.070Z,2.50
2023-05-12T10:24:30.930Z,2.58
2023-05-12T10:26:59.680Z,2.47
2023-05-12T10:29:30.138Z,2.30
2023-05-12T10:31:57.929Z,2.50
2023-05-12T10:34:32.711Z,2.60
2023-05-12T10:36:59.689Z,2.67
2023-05-12T10:39:30.913Z,2.53
2023-05-12T10:42:10.720Z,2.55
2023-05-12T10:44:54.703Z,2.30
2023-05-12T10:47:36.160Z,2.50
2023-05-12T10:50:03.146Z,2.58
2023-05-12T10:52:31.895Z,2.30
2023-05-12T10:55:04.397Z,2.50
2023-05-12T10:57:33.541Z,2.55
2023-05-12T11:00:03.270Z,2.50
2023-05-12T11:02:36.657Z,2.30
2023-05-12T11:05:13.162Z,2.60
2023-05-12T11:07:50.537Z,2.50
2023-05-12T11:10:19.480Z,2.50
2023-05-12T11:12:46.902Z,2.20
2023-05-12T11:15:15.475Z,2.22
2023-05-12T11:17:43.864Z,2.47
2023-05-12T11:20:11.159Z,2.20
2023-05-12T11:22:43.397Z,2.55
2023-05-12T11:25:12.052Z,2.58
2023-05-12T11:27:42.518Z,2.53
2023-05-12T11:30:11.125Z,2.83
2023-05-12T11:32:38.469Z,2.50
2023-05-12T11:35:16.033Z,2.47
2023-05-12T11:37:44.797Z,2.50
2023-05-12T11:40:16.481Z,2.45
2023-05-12T11:42:49.098Z,2.40
2023-05-12T11:45:27.317Z,2.22
2023-05-12T11:48:07.236Z,2.10
2023-05-12T11:50:38.877Z,2.28
2023-05-12T11:53:09.444Z,2.42
2023-05-12T11:55:36.286Z,2.30
2023-05-12T11:58:04.352Z,2.65
2023-05-12T12:00:35.352Z,2.90
2023-05-12T12:03:10.729Z,2.20
2023-05-12T12:05:38.464Z,2.30
2023-05-12T12:08:14.369Z,2.10
2023-05-12T12:10:45.717Z,2.42
2023-05-12T12:13:20.412Z,2.28
2023-05-12T12:15:48.619Z,2.65
2023-05-12T12:18:16.652Z,2.33
2023-05-12T12:20:46.145Z,2.25
2023-05-12T12:23:13.137Z,2.30
2023-05-12T12:25:39.951Z,2.60
2023-05-12T12:28:06.835Z,2.33
2023-05-12T12:30:34.135Z,2.47
2023-05-12T12:33:01.101Z,2.30
2023-05-12T12:35:27.987Z,2.60
2023-05-12T12:37:55.509Z,2.67
2023-05-12T12:40:22.456Z,2.30
2023-05-12T12:42:49.367Z,2.45
2023-05-12T12:45:17.013Z,2.30
2023-05-12T12:47:45.373Z,2.50
2023-05-12T12:50:12.308Z,2.30
2023-05-12T12:52:39.180Z,2.60
2023-05-12T12:55:07.398Z,2.50
2023-05-12T12:57:37.348Z,2.40
2023-05-12T13:00:05.618Z,2.38
2023-05-12T13:02:33.183Z,2.42
2023-05-12T13:05:04.191Z,2.33
2023-05-12T13:07:31.081Z,2.38
2023-05-12T13:09:58.038Z,2.55
2023-05-12T13:12:25.614Z,2.58
2023-05-12T13:14:55.286Z,2.60
2023-05-12T13:17:22.474Z,2.28
2023-05-12T13:19:50.868Z,2.47
2023-05-12T13:22:17.736Z,2.38
2023-05-12T13:24:44.728Z,2.70
2023-05-12T13:27:11.555Z,2.47
2023-05-12T13:29:38.650Z,2.72
2023-05-12T13:32:06.038Z,2.53
2023-05-12T13:34:32.895Z,2.40
2023-05-12T13:36:59.760Z,2.40
2023-05-12T13:39:27.050Z,2.28
2023-05-12T13:41:53.987Z,2.25
2023-05-12T13:44:20.965Z,2.65
2023-05-12T13:46:48.603Z,2.42
2023-05-12T13:49:15.632Z,2.50
2023-05-12T13:51:42.642Z,2.70
2023-05-12T13:54:09.589Z,2.33
2023-05-12T13:56:36.644Z,2.22
2023-05-12T13:59:03.759Z,2.40
2023-05-12T14:01:31.935Z,2.70
2023-05-12T14:03:58.791Z,2.70
2023-05-12T14:06:25.828Z,2.40
2023-05-12T14:08:52.940Z,2.58
2023-05-12T14:11:19.778Z,2.40
2023-05-12T14:13:46.946Z,2.28
2023-05-12T14:16:14.257Z,2.35
2023-05-12T14:18:43.374Z,2.45
2023-05-12T14:21:10.789Z,2.40
2023-05-12T14:23:38.850Z,2.63
2023-05-12T14:26:05.765Z,2.83
2023-05-12T14:28:32.626Z,3.22
2023-05-12T14:30:59.599Z,2.78
2023-05-12T14:33:27.248Z,2.67
2023-05-12T14:36:05.953Z,2.60
2023-05-12T14:38:34.609Z,2.35
2023-05-12T14:41:01.934Z,2.70
2023-05-12T14:43:28.810Z,2.90
2023-05-12T14:45:55.769Z,2.58
2023-05-12T14:48:23.761Z,2.60
2023-05-12T14:50:57.228Z,2.80
2023-05-12T14:53:24.348Z,3.35
2023-05-12T14:55:52.345Z,2.70
2023-05-12T14:58:21.558Z,2.50
2023-05-12T15:00:50.175Z,2.60
2023-05-12T15:03:17.854Z,2.95
2023-05-12T15:06:01.652Z,2.55
2023-05-12T15:08:32.539Z,2.60
2023-05-12T15:11:00.840Z,2.42
2023-05-12T15:13:27.792Z,2.50
2023-05-12T15:15:56.675Z,2.40
2023-05-12T15:18:24.185Z,2.40
2023-05-12T15:20:51.648Z,2.60
2023-05-12T15:23:18.816Z,2.45
2023-05-12T15:25:45.737Z,2.42
2023-05-12T15:28:12.597Z,2.40
2023-05-12T15:30:39.593Z,2.80
2023-05-12T15:33:07.008Z,2.50
2023-05-12T15:35:34.337Z,2.70
2023-05-12T15:38:01.205Z,2.50
2023-05-12T15:40:30.407Z,2.70
2023-05-12T15:42:57.984Z,2.90
2023-05-12T15:45:25.091Z,2.85
2023-05-12T15:47:52.210Z,2.50
2023-05-12T15:50:22.801Z,2.70
2023-05-12T15:52:50.055Z,2.55
2023-05-12T15:55:17.438Z,2.78
2023-05-12T15:57:44.594Z,2.60
2023-05-12T16:00:12.447Z,2.40
2023-05-12T16:02:39.395Z,2.90
2023-05-12T16:05:07.277Z,2.60
2023-05-12T16:07:34.934Z,2.70
2023-05-12T16:10:01.925Z,2.67
2023-05-12T16:12:28.976Z,2.70
2023-05-12T16:14:55.778Z,3.03
2023-05-12T16:17:23.443Z,3.00
2023-05-12T16:19:53.105Z,2.85
2023-05-12T16:22:20.407Z,2.80
2023-05-12T16:24:47.498Z,2.63
2023-05-12T16:27:14.391Z,2.80
2023-05-12T16:29:45.422Z,2.78
2023-05-12T16:32:14.757Z,3.00
2023-05-12T16:34:41.578Z,2.88
2023-05-12T16:37:08.422Z,2.88
2023-05-12T16:39:36.781Z,2.75
2023-05-12T16:42:03.859Z,2.85
2023-05-12T16:44:30.676Z,3.08
2023-05-12T16:46:57.719Z,2.70
2023-05-12T16:49:24.621Z,2.97
2023-05-12T16:51:51.549Z,2.58
2023-05-12T16:54:18.536Z,2.83
2023-05-12T16:56:47.508Z,2.70
2023-05-12T16:59:14.902Z,2.93
2023-05-12T17:01:41.821Z,2.60
2023-05-12T17:04:11.786Z,2.60
2023-05-12T17:06:38.754Z,2.70
2023-05-12T17:09:05.744Z,2.20
2023-05-12T17:11:32.618Z,2.50
2023-05-12T17:14:01.057Z,2.80
2023-05-12T17:16:28.757Z,2.50
2023-05-12T17:21:26.563Z,2.80
2023-05-12T17:23:54.049Z,2.50
2023-05-12T17:26:21.266Z,2.77
2023-05-12T17:28:50.479Z,2.60
2023-05-12T17:31:17.710Z,2.70
2023-05-12T17:33:45.009Z,2.73
2023-05-12T17:36:13.369Z,2.40
2023-05-12T17:38:41.428Z,2.40
2023-05-12T17:41:08.679Z,2.50
2023-05-12T17:43:35.761Z,2.93
2023-05-12T17:46:04.122Z,2.40
2023-05-12T17:48:33.690Z,2.30
2023-05-12T17:51:03.485Z,2.33
2023-05-12T17:53:31.319Z,2.70
2023-05-12T17:55:58.749Z,2.57
2023-05-12T17:58:25.820Z,3.60
2023-05-12T18:00:53.260Z,3.20
2023-05-12T18:03:23.922Z,3.00
2023-05-12T18:05:53.413Z,2.93
2023-05-12T18:08:21.784Z,3.03
2023-05-12T18:10:48.975Z,2.50
2023-05-12T18:13:16.063Z,2.67
2023-05-12T18:15:43.083Z,2.73
2023-05-12T18:18:10.704Z,2.60
2023-05-12T18:20:37.918Z,2.70
2023-05-12T18:23:04.959Z,2.63
2023-05-12T18:25:31.864Z,2.67
2023-05-12T18:27:59.038Z,2.90
2023-05-12T18:30:26.107Z,2.97
2023-05-12T18:32:53.138Z,3.15
2023-05-12T18:35:20.641Z,2.90
2023-05-12T18:37:48.092Z,3.20
2023-05-12T18:40:15.177Z,3.47
2023-05-12T18:42:42.690Z,3.00
2023-05-12T18:45:10.140Z,3.03
2023-05-12T18:47:37.439Z,3.27
2023-05-12T18:50:04.714Z,4.30
2023-05-12T18:52:31.594Z,3.33
2023-05-12T18:54:58.479Z,5.00
2023-05-12T18:57:25.553Z,3.87
2023-05-12T18:59:52.659Z,3.50
2023-05-12T19:02:19.469Z,3.57
2023-05-12T19:04:46.493Z,3.20
2023-05-12T19:07:15.489Z,3.73
2023-05-12T19:09:43.372Z,3.80
2023-05-12T19:12:11.821Z,3.70
2023-05-12T19:14:39.354Z,3.70
2023-05-12T19:17:07.729Z,3.50
2023-05-12T19:19:34.991Z,4.03
2023-05-12T19:22:02.348Z,3.60
2023-05-12T19:24:29.968Z,3.70
2023-05-12T19:26:57.553Z,3.87
2023-05-12T19:29:24.588Z,3.70
2023-05-12T19:31:53.423Z,3.67
2023-05-12T19:34:20.629Z,4.10
2023-05-12T19:36:47.704Z,4.20
2023-05-12T19:39:14.626Z,3.87
2023-05-12T19:41:41.547Z,3.90
2023-05-12T19:44:09.668Z,3.77
2023-05-12T19:46:36.740Z,4.03
2023-05-12T19:49:06.565Z,4.07
2023-05-12T19:51:33.850Z,4.40
2023-05-12T19:54:02.739Z,3.77
2023-05-12T19:56:30.050Z,4.10
2023-05-12T19:58:56.886Z,4.07
2023-05-12T20:01:42.263Z,4.10
2023-05-12T20:04:29.533Z,4.50
2023-05-12T20:07:16.731Z,4.27
2023-05-12T20:10:04.349Z,4.20
2023-05-12T20:12:51.832Z,4.53
2023-05-12T20:15:40.046Z,5.40
2023-05-12T20:18:28.739Z,5.73
2023-05-12T20:21:16.471Z,5.13
2023-05-12T20:24:03.954Z,4.77
2023-05-12T20:26:51.112Z,7.73
2023-05-12T20:29:38.387Z,5.97
2023-05-12T20:32:25.840Z,4.80
2023-05-12T20:35:13.139Z,4.53
2023-05-12T20:38:00.481Z,5.23
2023-05-12T20:40:47.868Z,6.07
2023-05-12T20:43:35.221Z,6.70
2023-05-12T20:46:22.808Z,5.53
2023-05-12T20:49:10.190Z,4.90
2023-05-12T20:51:57.381Z,4.93
2023-05-12T20:54:44.637Z,4.87
2023-05-12T20:57:31.905Z,4.90
2023-05-12T21:00:19.277Z,5.10
2023-05-12T21:03:06.774Z,5.40
2023-05-12T21:05:53.946Z,6.17
2023-05-12T21:08:41.086Z,5.63
2023-05-12T21:11:28.246Z,5.40
2023-05-12T21:14:15.478Z,5.83
2023-05-12T21:17:02.689Z,6.03
2023-05-12T21:19:49.837Z,6.13
2023-05-12T21:22:38.203Z,6.70
2023-05-12T21:25:25.374Z,6.23
2023-05-12T21:28:12.613Z,6.80
2023-05-12T21:31:01.921Z,6.83
2023-05-12T21:33:56.997Z,6.87
2023-05-12T21:36:44.394Z,7.20
2023-05-12T21:39:31.731Z,7.07
2023-05-12T21:42:18.900Z,7.17
2023-05-12T21:45:06.607Z,6.97
2023-05-12T21:47:53.977Z,7.03
2023-05-12T21:50:43.522Z,6.90
2023-05-12T21:53:31.835Z,7.10
2023-05-12T21:56:19.049Z,7.30
2023-05-12T21:59:06.454Z,6.70
2023-05-12T22:01:53.738Z,7.57
2023-05-12T22:04:41.135Z,6.97
2023-05-12T22:07:29.489Z,6.90
2023-05-12T22:10:16.816Z,7.30
2023-05-12T22:13:03.914Z,7.47
2023-05-12T22:15:51.161Z,6.93
2023-05-12T22:18:38.491Z,7.10
2023-05-12T22:21:25.956Z,7.20
2023-05-12T22:24:13.078Z,6.60
2023-05-12T22:27:00.275Z,7.27
2023-05-12T22:29:47.621Z,7.17
2023-05-12T22:32:34.745Z,7.30
2023-05-12T22:35:22.191Z,7.97
2023-05-12T22:38:09.370Z,7.77
2023-05-12T22:40:56.445Z,8.13
2023-05-12T22:43:43.550Z,8.07
2023-05-12T22:46:30.758Z,7.67
2023-05-12T22:49:17.980Z,8.23
2023-05-12T22:52:05.968Z,7.73
2023-05-12T22:54:54.175Z,8.17
2023-05-12T22:57:43.722Z,8.20
2023-05-12T23:00:31.021Z,8.00
2023-05-12T23:03:18.314Z,8.10
2023-05-12T23:06:06.151Z,8.17
2023-05-12T23:08:53.293Z,7.80
2023-05-12T23:11:40.513Z,7.93
2023-05-12T23:14:27.607Z,8.70
2023-05-12T23:17:14.891Z,8.47
2023-05-12T23:20:02.077Z,8.20
2023-05-12T23:22:49.251Z,8.20
2023-05-12T23:25:38.652Z,8.47
2023-05-12T23:28:25.844Z,8.33
2023-05-12T23:31:12.996Z,8.43
2023-05-12T23:34:00.151Z,8.40
2023-05-12T23:36:47.425Z,8.70
2023-05-12T23:39:34.785Z,8.83
2023-05-12T23:42:21.927Z,8.77
2023-05-12T23:45:09.477Z,8.93
2023-05-12T23:47:56.747Z,8.90
2023-05-12T23:50:43.942Z,8.90
2023-05-12T23:53:31.314Z,8.83
2023-05-12T23:56:18.417Z,8.87
2023-05-12T23:59:05.882Z,8.30
